Time;durP1;ratioP1;P1;durP2;ratioP2;P2;SDS_P1;SDS_P2;PMS_P1;PMS_P2;Temp;Humidity;BMP_temperature;BMP_pressure;BME280_temperature;BME280_humidity;BME280_pressure;Samples;Min_cycle;Max_cycle;Signal;HPM_P1;HPM_P2
2023/03/05 00:01:28;;;;;;;51.90;27.42;;;5.90;99.90;;;;;;5026802;28;20026;-81
2023/03/05 00:03:55;;;;;;;47.83;27.35;;;6.20;99.90;;;;;;5014005;28;20375;-81
2023/03/05 00:06:26;;;;;;;51.83;29.02;;;5.90;99.90;;;;;;5014374;28;20022;-81
2023/03/05 00:08:57;;;;;;;51.40;27.75;;;5.70;99.90;;;;;;5014178;28;20461;-83
2023/03/05 00:11:26;;;;;;;52.53;28.63;;;5.90;99.90;;;;;;5014341;28;20033;-81
2023/03/05 00:13:53;;;;;;;51.80;29.13;;;5.80;99.90;;;;;;5014505;28;20026;-83
2023/03/05 00:16:22;;;;;;;57.72;31.02;;;5.70;99.90;;;;;;5014051;28;20033;-83
2023/03/05 00:18:48;;;;;;;53.83;30.20;;;5.60;99.90;;;;;;5014014;28;20438;-83
2023/03/05 00:21:36;;;;;;;54.67;30.55;;;5.70;99.90;;;;;;5013860;28;20030;-82
2023/03/05 00:24:05;;;;;;;60.10;31.02;;;5.60;99.90;;;;;;5004710;28;20461;-80
2023/03/05 00:26:34;;;;;;;57.47;30.08;;;5.40;99.90;;;;;;5013788;28;20072;-81
2023/03/05 00:28:59;;;;;;;56.75;30.98;;;5.70;99.90;;;;;;5013768;28;20038;-81
2023/03/05 00:31:29;;;;;;;59.63;31.27;;;5.40;99.90;;;;;;5013751;28;20022;-81
2023/03/05 00:33:57;;;;;;;56.83;31.08;;;5.60;99.90;;;;;;5013948;28;20080;-81
2023/03/05 00:36:23;;;;;;;57.30;31.27;;;5.50;99.90;;;;;;5013711;28;20040;-83
2023/03/05 00:38:49;;;;;;;59.70;31.60;;;5.40;99.90;;;;;;5013742;28;20072;-82
2023/03/05 00:41:15;;;;;;;58.05;31.67;;;5.40;99.90;;;;;;5013450;28;20038;-81
2023/03/05 00:43:43;;;;;;;61.70;32.58;;;5.60;99.90;;;;;;5013658;28;20026;-81
2023/03/05 00:46:09;;;;;;;64.53;33.75;;;5.30;99.90;;;;;;5013823;28;20053;-80
2023/03/05 00:48:35;;;;;;;66.93;34.47;;;5.30;99.90;;;;;;5017939;28;20489;-81
2023/03/05 00:51:00;;;;;;;58.55;32.10;;;5.50;99.90;;;;;;5027996;28;20056;-81
2023/03/05 00:53:26;;;;;;;60.65;32.42;;;5.30;99.90;;;;;;5025905;28;20070;-81
2023/03/05 00:55:52;;;;;;;59.78;32.15;;;5.10;99.90;;;;;;5020263;28;20632;-82
2023/03/05 00:58:17;;;;;;;66.78;33.97;;;5.00;99.90;;;;;;5018050;28;20056;-81
2023/03/05 01:00:43;;;;;;;64.68;33.60;;;5.50;99.90;;;;;;5012883;28;20502;-81
2023/03/05 01:03:09;;;;;;;64.95;34.08;;;5.10;99.90;;;;;;5013206;28;20022;-80
2023/03/05 01:05:34;;;;;;;61.25;33.55;;;5.20;99.90;;;;;;5013277;28;20470;-80
2023/03/05 01:08:00;;;;;;;66.53;34.63;;;5.40;99.90;;;;;;4995450;28;20021;-82
2023/03/05 01:10:27;;;;;;;63.97;35.38;;;4.90;99.90;;;;;;5012939;28;20473;-80
2023/03/05 01:12:54;;;;;;;65.38;34.67;;;4.80;99.90;;;;;;5014428;28;20097;-81
2023/03/05 01:15:20;;;;;;;68.60;33.83;;;4.60;99.90;;;;;;5032719;28;20080;-81
2023/03/05 01:17:45;;;;;;;66.20;34.67;;;5.00;99.90;;;;;;5032475;28;20022;-80
2023/03/05 01:20:13;;;;;;;67.82;36.72;;;5.10;99.90;;;;;;5033132;28;20022;-81
2023/03/05 01:22:39;;;;;;;63.83;33.72;;;4.80;99.90;;;;;;5032668;28;20037;-80
2023/03/05 01:25:05;;;;;;;62.95;34.25;;;5.10;99.90;;;;;;5032654;28;20413;-81
2023/03/05 01:27:30;;;;;;;64.32;35.30;;;4.60;99.90;;;;;;5032260;28;20032;-81
2023/03/05 01:29:56;;;;;;;68.13;36.28;;;4.70;99.90;;;;;;5032420;28;20038;-80
2023/03/05 01:32:22;;;;;;;63.28;34.13;;;4.90;99.90;;;;;;5032493;28;20026;-81
2023/03/05 01:34:47;;;;;;;66.60;35.28;;;5.20;99.90;;;;;;5032391;28;20060;-81
2023/03/05 01:37:13;;;;;;;67.90;36.08;;;5.00;99.90;;;;;;5032545;28;20061;-80
2023/03/05 01:39:40;;;;;;;63.67;33.50;;;5.20;99.90;;;;;;5032339;28;20049;-80
2023/03/05 01:42:06;;;;;;;64.28;34.35;;;5.10;99.90;;;;;;5014583;28;20544;-80
2023/03/05 01:44:32;;;;;;;61.65;35.10;;;4.60;99.90;;;;;;5031851;28;20075;-81
2023/03/05 01:46:57;;;;;;;64.78;34.45;;;5.00;99.90;;;;;;5032110;28;20013;-80
2023/03/05 01:49:31;;;;;;;66.15;36.45;;;4.60;99.90;;;;;;5031216;28;20096;-81
2023/03/05 01:52:19;;;;;;;62.78;35.15;;;4.40;99.90;;;;;;5012510;28;20057;-81
2023/03/05 01:54:54;;;;;;;63.42;34.03;;;4.90;99.90;;;;;;5012272;28;20026;-81
2023/03/05 01:57:31;;;;;;;60.72;33.53;;;4.70;99.90;;;;;;5012400;28;20042;-81
2023/03/05 02:00:04;;;;;;;68.85;35.08;;;4.40;99.90;;;;;;5012173;28;20557;-81
2023/03/05 02:02:31;;;;;;;62.60;33.80;;;4.50;99.90;;;;;;5012713;28;20045;-81
2023/03/05 02:05:03;;;;;;;60.17;33.22;;;4.60;99.90;;;;;;5012522;28;20483;-81
2023/03/05 02:07:30;;;;;;;61.05;33.50;;;4.70;99.90;;;;;;5012215;28;20486;-80
2023/03/05 02:09:55;;;;;;;64.50;34.67;;;4.30;99.90;;;;;;5012571;28;20034;-81
2023/03/05 02:12:21;;;;;;;59.40;32.47;;;4.10;99.90;;;;;;5012171;28;20030;-81
2023/03/05 02:14:58;;;;;;;61.88;33.72;;;4.20;99.90;;;;;;5012276;28;20026;-80
2023/03/05 02:17:26;;;;;;;63.40;34.08;;;4.40;99.90;;;;;;5012155;28;20109;-81
2023/03/05 02:19:55;;;;;;;62.40;34.83;;;4.00;99.90;;;;;;5012221;28;20072;-80
2023/03/05 02:22:22;;;;;;;62.80;33.63;;;4.00;99.90;;;;;;5014872;28;20033;-81
2023/03/05 02:24:49;;;;;;;58.70;32.90;;;3.80;99.90;;;;;;5016251;28;20029;-81
2023/03/05 02:27:16;;;;;;;56.60;30.35;;;4.30;99.90;;;;;;5015715;28;20018;-81
2023/03/05 02:29:44;;;;;;;59.45;33.45;;;4.10;99.90;;;;;;5015679;28;20514;-81
2023/03/05 02:32:11;;;;;;;57.70;32.65;;;4.10;99.90;;;;;;5016384;28;20026;-81
2023/03/05 02:34:37;;;;;;;62.95;32.58;;;4.30;99.90;;;;;;5015999;28;20034;-81
2023/03/05 02:37:08;;;;;;;56.92;31.85;;;3.50;99.90;;;;;;5016220;28;20026;-81
2023/03/05 02:39:39;;;;;;;59.65;32.05;;;3.50;99.90;;;;;;5015969;28;20037;-80
2023/03/05 02:42:05;;;;;;;60.33;32.63;;;3.60;99.90;;;;;;5015530;28;20554;-80
2023/03/05 02:44:31;;;;;;;59.75;31.55;;;3.60;99.90;;;;;;5015881;28;20545;-80
2023/03/05 02:46:57;;;;;;;58.03;32.17;;;3.60;99.90;;;;;;5015680;28;20093;-80
2023/03/05 02:49:22;;;;;;;59.88;32.00;;;3.40;99.90;;;;;;5016208;28;20065;-81
2023/03/05 02:51:48;;;;;;;56.22;31.73;;;3.90;99.90;;;;;;4997474;28;20045;-81
2023/03/05 02:54:16;;;;;;;57.55;31.75;;;3.40;99.90;;;;;;5015351;28;20034;-80
2023/03/05 02:56:42;;;;;;;54.03;31.05;;;3.40;99.90;;;;;;5022198;28;20010;-80
2023/03/05 02:59:08;;;;;;;57.65;32.15;;;3.40;99.90;;;;;;5035215;28;20564;-81
2023/03/05 03:01:33;;;;;;;56.20;31.80;;;3.70;99.90;;;;;;5035455;28;20017;-81
2023/03/05 03:03:59;;;;;;;60.50;33.42;;;3.70;99.90;;;;;;5035200;28;20041;-80
2023/03/05 03:06:25;;;;;;;55.20;31.35;;;3.60;99.90;;;;;;5034885;28;20504;-80
2023/03/05 03:08:50;;;;;;;60.47;33.03;;;3.60;99.90;;;;;;5035520;28;20102;-81
2023/03/05 03:11:17;;;;;;;54.10;31.02;;;3.20;99.90;;;;;;5034679;28;20574;-81
2023/03/05 03:13:43;;;;;;;59.88;32.13;;;3.10;99.90;;;;;;5034971;28;20024;-81
2023/03/05 03:16:13;;;;;;;59.33;32.97;;;3.00;99.90;;;;;;5035147;28;20033;-81
2023/03/05 03:18:39;;;;;;;54.75;31.15;;;3.40;99.90;;;;;;5035226;28;20179;-80
2023/03/05 03:21:07;;;;;;;57.35;32.30;;;3.40;99.90;;;;;;5035021;28;20454;-81
2023/03/05 03:23:33;;;;;;;55.47;31.67;;;2.90;99.90;;;;;;5034825;28;20389;-80
2023/03/05 03:25:59;;;;;;;51.85;31.33;;;3.30;99.90;;;;;;5034310;28;20120;-80
2023/03/05 03:28:24;;;;;;;56.17;31.92;;;3.30;99.90;;;;;;5034965;28;20110;-80
2023/03/05 03:30:50;;;;;;;54.72;30.70;;;2.90;99.90;;;;;;5034272;28;20039;-80
2023/03/05 03:33:17;;;;;;;54.50;29.55;;;3.40;99.90;;;;;;5030202;28;20429;-80
2023/03/05 03:35:44;;;;;;;54.95;29.10;;;3.40;99.90;;;;;;5018434;28;20044;-80
2023/03/05 03:38:12;;;;;;;54.72;30.35;;;3.50;99.90;;;;;;5026333;28;20112;-81
2023/03/05 03:40:38;;;;;;;56.55;30.52;;;3.40;99.90;;;;;;5026154;28;20029;-81
2023/03/05 03:43:04;;;;;;;52.35;30.80;;;3.20;99.90;;;;;;5019284;28;20056;-80
2023/03/05 03:45:29;;;;;;;53.05;29.25;;;2.80;99.90;;;;;;5019324;28;20025;-80
2023/03/05 03:47:55;;;;;;;53.67;29.00;;;2.80;99.90;;;;;;5016413;28;20145;-81
2023/03/05 03:50:23;;;;;;;49.80;27.98;;;3.20;99.90;;;;;;5034836;28;20090;-81
2023/03/05 03:52:49;;;;;;;50.22;28.08;;;2.90;99.90;;;;;;5029851;28;20049;-80
2023/03/05 03:55:15;;;;;;;46.20;28.60;;;2.80;99.90;;;;;;5024566;28;20052;-81
2023/03/05 03:57:42;;;;;;;50.03;29.00;;;2.70;99.90;;;;;;5033283;28;20445;-81
2023/03/05 04:00:10;;;;;;;50.33;28.52;;;3.20;99.90;;;;;;5021965;28;20030;-80
2023/03/05 04:02:36;;;;;;;46.38;27.60;;;2.70;99.90;;;;;;5027044;28;20037;-81
2023/03/05 04:05:02;;;;;;;47.95;28.15;;;2.70;99.90;;;;;;5032438;28;20112;-80
2023/03/05 04:07:28;;;;;;;50.65;29.05;;;2.70;99.90;;;;;;5032319;28;20025;-80
2023/03/05 04:09:54;;;;;;;44.70;27.02;;;3.00;99.90;;;;;;5028841;28;20558;-80
2023/03/05 04:12:20;;;;;;;52.95;28.15;;;2.60;99.90;;;;;;5022333;28;20030;-81
2023/03/05 04:14:47;;;;;;;51.60;28.05;;;2.60;99.90;;;;;;5019989;28;20030;-80
2023/03/05 04:17:14;;;;;;;48.45;27.88;;;3.20;99.90;;;;;;5031528;28;20503;-81
2023/03/05 04:19:40;;;;;;;48.10;27.90;;;3.00;99.90;;;;;;5014312;28;20409;-81
2023/03/05 04:22:10;;;;;;;52.92;29.13;;;3.00;99.90;;;;;;5014174;28;20029;-81
2023/03/05 04:24:36;;;;;;;47.47;27.23;;;3.00;99.90;;;;;;5025642;28;20029;-80
2023/03/05 04:27:02;;;;;;;43.20;25.80;;;3.40;99.90;;;;;;5014146;28;20025;-81
2023/03/05 04:29:27;;;;;;;46.45;26.25;;;2.80;99.90;;;;;;5031458;28;20044;-79
2023/03/05 04:31:53;;;;;;;44.33;26.33;;;2.70;99.90;;;;;;5027611;28;20026;-80
2023/03/05 04:34:18;;;;;;;45.33;26.77;;;2.90;99.90;;;;;;5023218;28;20037;-81
2023/03/05 04:36:44;;;;;;;48.95;26.80;;;2.70;99.90;;;;;;5033501;28;20045;-80
2023/03/05 04:39:10;;;;;;;45.50;25.40;;;2.60;99.90;;;;;;5021678;28;20486;-81
2023/03/05 04:41:35;;;;;;;45.42;26.52;;;2.50;99.90;;;;;;5025219;28;20030;-81
2023/03/05 04:44:01;;;;;;;42.28;24.60;;;3.00;99.90;;;;;;5024053;28;20076;-81
2023/03/05 04:46:27;;;;;;;43.53;25.70;;;2.60;99.90;;;;;;5021792;28;20029;-81
2023/03/05 04:48:53;;;;;;;43.15;24.02;;;2.60;99.90;;;;;;5014513;28;20029;-81
2023/03/05 04:51:19;;;;;;;43.25;24.83;;;3.00;99.90;;;;;;5023267;28;20163;-81
2023/03/05 04:53:44;;;;;;;42.47;23.50;;;3.20;99.90;;;;;;5024614;28;20104;-81
2023/03/05 04:56:10;;;;;;;43.13;25.90;;;3.10;99.90;;;;;;5027230;28;20093;-81
2023/03/05 04:58:36;;;;;;;41.92;24.60;;;2.90;99.90;;;;;;5032329;28;20525;-81
2023/03/05 05:01:03;;;;;;;43.70;24.95;;;2.80;99.90;;;;;;5033084;28;20022;-81
2023/03/05 05:03:29;;;;;;;44.70;24.58;;;2.70;99.90;;;;;;5015500;28;20438;-81
2023/03/05 05:05:56;;;;;;;42.45;23.27;;;3.40;99.90;;;;;;5033396;28;20536;-81
2023/03/05 05:08:22;;;;;;;42.83;24.08;;;3.40;99.90;;;;;;5032570;28;20029;-82
2023/03/05 05:11:14;;;;;;;44.03;23.98;;;2.80;99.90;;;;;;5032464;28;20040;-81
2023/03/05 05:13:40;;;;;;;40.42;23.75;;;2.60;99.90;;;;;;5011171;28;20079;-81
2023/03/05 05:16:07;;;;;;;39.65;23.38;;;2.60;99.90;;;;;;5028141;28;20029;-81
2023/03/05 05:18:33;;;;;;;42.42;23.80;;;2.60;99.90;;;;;;4995387;28;20038;-81
2023/03/05 05:20:58;;;;;;;41.08;24.95;;;3.20;99.90;;;;;;5012952;28;20029;-81
2023/03/05 05:23:24;;;;;;;41.92;24.52;;;2.70;99.90;;;;;;5012900;28;20034;-81
2023/03/05 05:26:01;;;;;;;42.80;24.65;;;2.60;99.90;;;;;;4995294;28;20045;-81
2023/03/05 05:28:27;;;;;;;35.55;22.90;;;2.70;99.90;;;;;;5013230;28;20038;-81
2023/03/05 05:30:55;;;;;;;38.13;22.02;;;3.20;99.90;;;;;;5012631;28;20505;-80
2023/03/05 05:33:22;;;;;;;39.30;22.80;;;2.70;99.90;;;;;;4995320;28;20022;-81
2023/03/05 05:35:48;;;;;;;41.22;23.17;;;2.50;99.90;;;;;;5012340;28;20064;-80
2023/03/05 05:38:13;;;;;;;44.63;22.63;;;2.30;99.90;;;;;;5012807;28;20022;-80
2023/03/05 05:40:39;;;;;;;43.67;24.15;;;2.30;99.90;;;;;;5012750;28;20084;-81
2023/03/05 05:43:05;;;;;;;41.22;22.77;;;2.70;99.90;;;;;;5012527;28;20025;-80
2023/03/05 05:45:31;;;;;;;38.17;22.83;;;2.90;99.90;;;;;;5012493;28;20026;-81
2023/03/05 05:47:57;;;;;;;38.60;22.83;;;2.90;99.90;;;;;;5012621;28;20083;-81
2023/03/05 05:50:23;;;;;;;39.45;24.23;;;3.20;99.90;;;;;;5012334;28;20037;-81
2023/03/05 05:52:51;;;;;;;43.42;24.58;;;3.00;99.90;;;;;;5019004;28;20092;-81
2023/03/05 05:55:17;;;;;;;37.20;22.52;;;2.60;99.90;;;;;;5027956;28;20072;-81
2023/03/05 05:57:43;;;;;;;36.15;22.73;;;2.50;99.90;;;;;;5026945;28;20050;-80
2023/03/05 06:00:15;;;;;;;41.40;22.58;;;3.20;99.90;;;;;;5032150;28;20624;-81
2023/03/05 06:02:42;;;;;;;40.95;22.00;;;2.60;99.90;;;;;;5032155;28;20086;-81
2023/03/05 06:05:11;;;;;;;40.20;21.98;;;3.00;99.90;;;;;;5031841;28;20032;-80
2023/03/05 06:07:37;;;;;;;49.58;25.98;;;3.00;99.90;;;;;;5026626;28;20044;-80
2023/03/05 06:10:03;;;;;;;43.17;23.35;;;2.40;99.90;;;;;;5012331;28;20037;-81
2023/03/05 06:12:29;;;;;;;41.13;22.60;;;2.30;99.90;;;;;;5012203;28;20030;-81
2023/03/05 06:14:57;;;;;;;42.35;22.50;;;2.30;99.90;;;;;;5012345;28;20037;-81
2023/03/05 06:17:23;;;;;;;36.95;21.67;;;2.30;99.90;;;;;;5012493;28;20037;-81
2023/03/05 06:19:49;;;;;;;37.75;21.77;;;2.30;99.90;;;;;;5011790;28;20034;-81
2023/03/05 06:22:14;;;;;;;40.22;21.67;;;2.60;99.90;;;;;;5012143;28;20065;-81
2023/03/05 06:24:40;;;;;;;37.35;21.73;;;2.60;99.90;;;;;;5012004;28;20029;-81
2023/03/05 06:27:05;;;;;;;38.33;21.95;;;2.40;99.90;;;;;;5012447;28;20033;-81
2023/03/05 06:29:31;;;;;;;39.28;20.80;;;2.60;99.90;;;;;;5012182;28;20034;-80
2023/03/05 06:31:57;;;;;;;38.63;21.83;;;2.30;99.90;;;;;;5012274;28;20487;-80
2023/03/05 06:34:23;;;;;;;38.28;21.50;;;2.20;99.90;;;;;;5011743;28;20523;-81
2023/03/05 06:36:48;;;;;;;39.13;22.00;;;2.80;99.90;;;;;;5011821;28;20056;-81
2023/03/05 06:39:14;;;;;;;41.38;22.13;;;2.30;99.90;;;;;;5011911;28;20061;-81
2023/03/05 06:41:40;;;;;;;39.17;22.83;;;2.20;99.90;;;;;;5012271;28;20022;-81
2023/03/05 06:44:05;;;;;;;36.42;22.55;;;2.90;99.90;;;;;;5020884;28;20040;-80
2023/03/05 06:46:38;;;;;;;37.05;21.73;;;2.10;99.90;;;;;;5031833;28;20018;-81
2023/03/05 06:49:05;;;;;;;41.20;22.23;;;2.20;99.90;;;;;;5031426;28;20091;-80
2023/03/05 06:51:36;;;;;;;37.08;22.23;;;2.60;99.90;;;;;;5031441;28;20028;-80
2023/03/05 06:54:10;;;;;;;40.55;22.65;;;2.20;99.90;;;;;;5014977;28;20106;-80
2023/03/05 06:56:37;;;;;;;39.58;22.70;;;2.60;99.90;;;;;;5017332;28;20078;-80
2023/03/05 06:59:04;;;;;;;42.63;22.67;;;2.90;99.90;;;;;;5031119;28;20139;-80
2023/03/05 07:01:30;;;;;;;43.67;23.02;;;2.10;99.90;;;;;;5024397;28;20040;-80
2023/03/05 07:03:59;;;;;;;40.15;21.20;;;2.60;99.90;;;;;;5011246;28;20109;-80
2023/03/05 07:06:29;;;;;;;41.20;22.38;;;2.20;99.90;;;;;;5012509;28;20368;-79
2023/03/05 07:08:56;;;;;;;41.15;21.83;;;2.20;99.90;;;;;;5034820;28;20033;-81
2023/03/05 07:11:23;;;;;;;37.63;22.73;;;2.30;99.90;;;;;;5035352;28;20026;-80
2023/03/05 07:13:49;;;;;;;40.58;21.42;;;2.50;99.90;;;;;;5034996;28;20033;-81
2023/03/05 07:16:19;;;;;;;39.65;21.98;;;2.20;99.90;;;;;;5034682;28;20025;-80
2023/03/05 07:18:45;;;;;;;40.03;21.83;;;2.80;99.90;;;;;;5033217;28;20052;-80
2023/03/05 07:21:14;;;;;;;40.30;22.15;;;2.40;99.90;;;;;;5035505;28;20010;-80
2023/03/05 07:23:40;;;;;;;37.08;21.42;;;3.00;99.90;;;;;;5034949;28;20392;-80
2023/03/05 07:26:06;;;;;;;44.25;22.08;;;2.40;99.90;;;;;;5035010;28;20104;-81
2023/03/05 07:28:33;;;;;;;37.65;21.35;;;3.20;99.90;;;;;;5035120;28;20096;-80
2023/03/05 07:31:05;;;;;;;41.08;22.38;;;3.30;99.90;;;;;;5034846;28;20091;-81
2023/03/05 07:33:32;;;;;;;37.30;21.73;;;3.20;99.90;;;;;;5033907;28;20028;-80
2023/03/05 07:36:00;;;;;;;43.97;22.23;;;2.90;99.90;;;;;;5034590;28;20036;-80
2023/03/05 07:38:26;;;;;;;38.28;21.98;;;2.60;99.90;;;;;;5034703;28;20104;-81
2023/03/05 07:40:51;;;;;;;41.55;21.38;;;3.20;99.90;;;;;;5034754;28;20462;-80
2023/03/05 07:43:17;;;;;;;38.22;22.08;;;3.30;99.90;;;;;;5034646;28;20112;-80
2023/03/05 07:45:44;;;;;;;35.88;21.10;;;2.80;99.90;;;;;;5018280;28;20029;-86
2023/03/05 07:48:15;;;;;;;39.92;22.23;;;3.30;99.90;;;;;;5014942;28;20109;-87
2023/03/05 07:50:41;;;;;;;37.95;21.52;;;4.20;99.90;;;;;;5015749;28;20474;-86
2023/03/05 07:53:07;;;;;;;39.05;22.30;;;3.80;99.90;;;;;;5014580;28;20037;-87
2023/03/05 07:55:33;;;;;;;39.83;22.13;;;3.80;99.90;;;;;;5021797;28;20026;-88
2023/03/05 07:57:59;;;;;;;37.88;21.42;;;4.20;99.90;;;;;;5034068;28;20041;-86
2023/03/05 08:00:25;;;;;;;34.75;21.35;;;4.00;99.90;;;;;;5023174;28;20116;-91
2023/03/05 08:02:51;;;;;;;42.55;22.73;;;3.80;99.90;;;;;;5016305;28;20022;-87
2023/03/05 08:05:16;;;;;;;40.30;20.73;;;4.20;99.90;;;;;;5027365;28;20091;-87
2023/03/05 08:07:42;;;;;;;39.80;21.23;;;3.90;99.90;;;;;;5032174;28;20456;-88
2023/03/05 08:10:08;;;;;;;38.30;22.38;;;4.10;99.90;;;;;;5023173;28;20133;-88
2023/03/05 08:12:34;;;;;;;38.97;22.27;;;4.30;99.90;;;;;;5002814;28;20030;-90
2023/03/05 08:15:00;;;;;;;40.47;21.85;;;4.50;99.90;;;;;;5004068;28;20030;-86
2023/03/05 08:17:26;;;;;;;37.67;22.25;;;4.80;99.90;;;;;;5030623;28;20037;-87
2023/03/05 08:19:53;;;;;;;39.13;22.48;;;4.40;99.90;;;;;;5016154;28;20040;-87
2023/03/05 08:22:19;;;;;;;41.25;22.02;;;4.30;99.90;;;;;;5028015;28;20030;-88
2023/03/05 08:24:45;;;;;;;36.28;21.40;;;4.80;99.90;;;;;;5029126;28;20056;-88
2023/03/05 08:27:10;;;;;;;34.28;21.27;;;4.70;99.90;;;;;;5013693;28;20034;-92
2023/03/05 08:29:36;;;;;;;37.53;22.27;;;4.50;99.90;;;;;;5002323;28;20126;-88
2023/03/05 08:32:02;;;;;;;38.10;20.42;;;5.00;99.90;;;;;;5013962;28;20398;-87
2023/03/05 08:34:27;;;;;;;34.75;21.00;;;4.60;99.90;;;;;;5019951;28;20088;-86
2023/03/05 08:36:53;;;;;;;37.45;21.95;;;4.80;99.90;;;;;;5033991;28;20109;-87
2023/03/05 08:39:19;;;;;;;39.13;21.85;;;4.60;99.90;;;;;;5032088;28;20038;-87
2023/03/05 08:41:45;;;;;;;36.92;21.85;;;4.50;99.90;;;;;;5032397;28;20116;-87
2023/03/05 08:44:10;;;;;;;33.38;21.63;;;4.20;99.90;;;;;;5030744;28;20469;-87
2023/03/05 08:46:38;;;;;;;40.85;22.45;;;4.70;99.90;;;;;;5030202;28;20072;-87
2023/03/05 08:49:06;;;;;;;39.70;22.80;;;4.40;99.90;;;;;;5015193;28;20120;-88
2023/03/05 08:51:32;;;;;;;40.35;22.60;;;5.10;99.90;;;;;;5014158;28;20426;-87
2023/03/05 08:53:58;;;;;;;39.30;21.42;;;5.10;99.90;;;;;;4995881;28;20022;-88
2023/03/05 08:56:26;;;;;;;38.78;21.35;;;4.80;99.90;;;;;;5026369;28;20022;-86
2023/03/05 08:58:52;;;;;;;41.08;22.23;;;4.90;99.90;;;;;;5013203;28;20104;-89
2023/03/05 09:01:17;;;;;;;41.70;22.48;;;5.20;99.90;;;;;;5016979;28;20030;-87
2023/03/05 09:03:43;;;;;;;40.00;23.15;;;4.90;99.90;;;;;;5024972;28;20026;-87
2023/03/05 09:06:11;;;;;;;41.25;23.83;;;4.70;99.90;;;;;;5013299;28;20520;-87
2023/03/05 09:08:37;;;;;;;36.67;22.10;;;5.00;99.90;;;;;;5004451;28;20022;-87
2023/03/05 09:11:08;;;;;;;43.17;24.60;;;5.00;99.90;;;;;;5033405;28;20033;-87
2023/03/05 09:13:34;;;;;;;41.90;24.13;;;4.70;99.90;;;;;;5014475;28;20021;-87
2023/03/05 09:16:02;;;;;;;40.22;23.35;;;4.80;99.90;;;;;;5032663;28;20036;-87
2023/03/05 09:18:29;;;;;;;37.72;22.55;;;4.70;99.90;;;;;;5032833;28;20030;-87
2023/03/05 09:20:55;;;;;;;38.58;22.05;;;5.10;99.90;;;;;;5014840;28;20509;-87
2023/03/05 09:23:21;;;;;;;44.90;24.70;;;4.90;99.90;;;;;;5033343;28;20021;-87
2023/03/05 09:25:47;;;;;;;41.00;23.98;;;5.20;99.90;;;;;;5032320;28;20033;-87
2023/03/05 09:28:13;;;;;;;41.75;23.70;;;5.30;99.90;;;;;;5015969;28;20501;-87
2023/03/05 09:30:38;;;;;;;41.90;24.27;;;5.30;99.90;;;;;;5012628;28;20136;-87
2023/03/05 09:33:04;;;;;;;40.53;23.70;;;5.20;99.90;;;;;;5012838;28;20057;-87
2023/03/05 09:35:33;;;;;;;42.03;25.20;;;5.10;99.90;;;;;;5012915;28;20113;-87
2023/03/05 09:37:58;;;;;;;42.30;23.88;;;5.40;99.90;;;;;;5014775;28;20574;-92
2023/03/05 09:40:25;;;;;;;42.63;24.42;;;5.40;99.90;;;;;;5032737;28;20104;-87
2023/03/05 09:43:21;;;;;;;40.40;23.95;;;5.40;99.90;;;;;;5032521;28;20022;-87
2023/03/05 09:46:02;;;;;;;41.88;24.00;;;5.50;99.90;;;;;;5032446;28;20037;-87
2023/03/05 09:48:39;;;;;;;45.85;24.80;;;5.70;99.90;;;;;;5032353;28;20087;-87
2023/03/05 09:51:15;;;;;;;44.58;24.75;;;5.90;99.90;;;;;;5014544;28;20548;-87
2023/03/05 09:53:52;;;;;;;46.45;25.58;;;6.60;99.90;;;;;;5019368;28;20540;-88
2023/03/05 09:56:40;;;;;;;44.28;24.88;;;6.50;99.90;;;;;;5014949;28;20053;-87
2023/03/05 09:59:43;;;;;;;42.85;25.05;;;6.80;99.90;;;;;;5031913;28;20301;-88
2023/03/05 10:02:35;;;;;;;43.97;26.48;;;6.60;99.90;;;;;;5032009;28;20068;-88
2023/03/05 10:05:24;;;;;;;43.10;25.13;;;7.00;99.90;;;;;;5031552;28;20171;-87
2023/03/05 10:08:00;;;;;;;47.58;27.17;;;6.90;99.90;;;;;;5031892;28;20146;-88
2023/03/05 10:10:38;;;;;;;44.00;26.27;;;7.80;99.90;;;;;;5032395;28;20512;-88
2023/03/05 10:13:15;;;;;;;41.95;26.00;;;7.80;99.90;;;;;;5031910;28;20049;-88
2023/03/05 10:16:06;;;;;;;41.83;26.08;;;8.20;99.90;;;;;;5031982;28;20060;-88
2023/03/05 10:18:38;;;;;;;43.90;26.58;;;8.20;99.90;;;;;;5032669;28;20029;-89
2023/03/05 10:21:38;;;;;;;44.75;27.38;;;8.00;99.90;;;;;;5031955;28;20128;-87
2023/03/05 10:24:14;;;;;;;40.33;27.25;;;7.90;99.90;;;;;;4932451;29;20035;-88
2023/03/05 10:26:45;;;;;;;41.88;27.42;;;8.30;99.90;;;;;;4916645;29;20039;-88
2023/03/05 10:29:28;;;;;;;44.03;27.13;;;9.00;99.90;;;;;;4932709;29;20031;-88
2023/03/05 10:32:15;;;;;;;46.47;27.85;;;9.50;99.90;;;;;;4937543;29;20037;-88
2023/03/05 10:34:53;;;;;;;43.03;25.75;;;9.80;99.90;;;;;;4932752;29;20091;-88
2023/03/05 10:37:55;;;;;;;43.25;27.05;;;11.10;99.90;;;;;;4932775;29;20048;-89
2023/03/05 10:40:25;;;;;;;43.67;26.70;;;10.90;99.90;;;;;;4932183;29;20036;-88
2023/03/05 10:43:06;;;;;;;43.80;28.27;;;11.00;99.90;;;;;;4934201;29;20062;-89
2023/03/05 10:45:46;;;;;;;44.08;29.70;;;10.40;99.90;;;;;;4936313;29;20031;-88
2023/03/05 10:48:26;;;;;;;43.80;29.38;;;10.00;99.90;;;;;;4936392;29;20111;-89
2023/03/05 10:51:01;;;;;;;45.75;28.85;;;10.60;99.90;;;;;;4936241;29;20581;-88
2023/03/05 10:54:03;;;;;;;46.08;30.70;;;11.70;99.90;;;;;;4920177;29;20484;-89
2023/03/05 10:56:30;;;;;;;43.92;30.60;;;12.50;99.90;;;;;;4934960;29;20122;-89
2023/03/05 10:58:56;;;;;;;47.25;30.17;;;13.80;99.90;;;;;;4954166;28;20053;-89
2023/03/05 11:01:25;;;;;;;43.78;30.65;;;14.80;99.90;;;;;;5016855;28;20028;-89
2023/03/05 11:03:52;;;;;;;44.22;30.10;;;15.40;99.90;;;;;;5016348;28;20025;-89
2023/03/05 11:06:39;;;;;;;43.88;30.35;;;14.70;99.90;;;;;;5034029;28;20022;-90
2023/03/05 11:09:16;;;;;;;45.78;31.33;;;14.00;99.90;;;;;;5033791;28;20037;-89
2023/03/05 11:11:44;;;;;;;43.28;30.67;;;14.40;99.90;;;;;;5033984;28;20428;-90
2023/03/05 11:14:29;;;;;;;45.10;33.50;;;13.30;99.90;;;;;;5034118;28;20033;-88
2023/03/05 11:16:55;;;;;;;46.55;32.55;;;14.30;99.90;;;;;;5034322;28;20022;-89
2023/03/05 11:19:25;;;;;;;44.20;31.83;;;14.40;99.90;;;;;;5033998;28;20027;-89
2023/03/05 11:22:09;;;;;;;46.28;33.90;;;15.20;99.90;;;;;;5034015;28;20033;-89
2023/03/05 11:24:36;;;;;;;45.38;33.70;;;14.90;99.90;;;;;;5033571;28;20109;-89
2023/03/05 11:27:22;;;;;;;46.13;34.10;;;15.30;99.90;;;;;;5033698;28;20044;-90
2023/03/05 11:29:48;;;;;;;48.67;33.63;;;14.80;99.90;;;;;;5016456;28;20024;-89
2023/03/05 11:32:19;;;;;;;46.45;33.72;;;14.10;99.90;;;;;;5034041;28;20048;-89
2023/03/05 11:34:45;;;;;;;43.08;33.17;;;15.40;99.90;;;;;;5016109;28;20033;-89
2023/03/05 11:37:25;;;;;;;44.53;33.30;;;16.90;99.90;;;;;;5033620;28;20439;-90
2023/03/05 11:40:09;;;;;;;46.58;34.10;;;16.70;99.90;;;;;;5033823;28;20108;-90
2023/03/05 11:42:38;;;;;;;45.58;33.92;;;15.20;99.90;;;;;;5033535;28;20040;-90
2023/03/05 11:45:05;;;;;;;44.10;32.67;;;15.90;99.90;;;;;;5034321;28;20057;-90
2023/03/05 11:47:42;;;;;;;45.67;35.03;;;16.70;99.90;;;;;;5015938;28;20042;-90
2023/03/05 11:50:33;;;;;;;42.25;32.65;;;16.60;99.90;;;;;;5015934;28;20080;-90
2023/03/05 11:53:17;;;;;;;43.97;32.40;;;15.90;99.90;;;;;;5032793;28;20030;-90
2023/03/05 11:55:47;;;;;;;42.90;33.63;;;17.40;99.90;;;;;;5032970;28;20540;-90
2023/03/05 11:58:15;;;;;;;43.30;33.40;;;17.70;99.90;;;;;;4952039;28;1447587;-90
2023/03/05 12:00:44;;;;;;;41.67;32.35;;;17.80;99.90;;;;;;5011104;28;20034;-90
2023/03/05 12:03:16;;;;;;;42.58;33.60;;;19.40;99.90;;;;;;5014749;28;20037;-90
2023/03/05 12:05:46;;;;;;;44.22;33.10;;;19.60;99.90;;;;;;5014504;28;20026;-91
2023/03/05 12:08:18;;;;;;;43.80;34.50;;;20.20;99.90;;;;;;5015949;28;20026;-90
2023/03/05 12:10:44;;;;;;;45.42;35.10;;;19.90;99.90;;;;;;5014512;28;20121;-91
2023/03/05 12:13:34;;;;;;;41.28;34.65;;;19.90;99.90;;;;;;5014548;28;20029;-91
2023/03/05 12:16:25;;;;;;;44.20;34.63;;;20.90;99.90;;;;;;5014398;28;20026;-91
2023/03/05 12:18:59;;;;;;;43.97;34.38;;;18.60;99.90;;;;;;4996949;28;20026;-91
2023/03/05 12:21:40;;;;;;;43.25;36.13;;;17.30;99.90;;;;;;5014341;28;20528;-90
2023/03/05 12:24:23;;;;;;;44.90;36.97;;;16.30;99.90;;;;;;5014541;28;20072;-90
2023/03/05 12:26:53;;;;;;;42.45;34.30;;;17.10;99.90;;;;;;5014263;28;20496;-90
2023/03/05 12:29:40;;;;;;;47.13;35.67;;;18.80;99.90;;;;;;5014174;28;20062;-91
2023/03/05 12:32:33;;;;;;;46.08;35.30;;;19.90;99.90;;;;;;5014343;28;20030;-91
2023/03/05 12:35:00;;;;;;;44.22;35.45;;;19.30;99.90;;;;;;5014362;28;20030;-91
2023/03/05 12:37:26;;;;;;;45.42;35.38;;;19.70;99.90;;;;;;5014671;28;20029;-91
2023/03/05 12:40:11;;;;;;;43.40;35.35;;;20.40;99.90;;;;;;5014073;28;20036;-91
2023/03/05 12:42:37;;;;;;;49.45;36.53;;;20.70;99.90;;;;;;5014011;28;20037;-91
2023/03/05 12:45:08;;;;;;;50.88;37.22;;;20.80;99.90;;;;;;4996529;28;20519;-91
2023/03/05 12:47:35;;;;;;;48.60;38.58;;;21.30;99.90;;;;;;5014459;28;20397;-91